Time;durP1;ratioP1;P1;durP2;ratioP2;P2;SDS_P1;SDS_P2;PMS_P1;PMS_P2;Temp;Humidity;BMP_temperature;BMP_pressure;BME280_temperature;BME280_humidity;BME280_pressure;Samples;Min_cycle;Max_cycle;Signal;HPM_P1;HPM_P2
2020/12/20 00:16:08;;;;;;;;;;;7.30;99.90;;;;;;5121077;23;19925;-80
2020/12/20 00:25:04;;;;;;;;;;;7.20;99.90;;;;;;5020768;28;19948;-81
2020/12/20 00:30:18;;;;;;;;;;;7.10;99.90;;;;;;5023646;28;19927;-81
2020/12/20 00:44:59;;;;;;;;;;;7.10;99.90;;;;;;5011927;28;19929;-81
2020/12/20 00:47:26;;;;;;;;;;;7.40;99.90;;;;;;5001305;28;19926;-82
2020/12/20 00:59:05;;;;;;;;;;;7.30;99.90;;;;;;5008829;28;20388;-82
2020/12/20 01:01:37;;;;;;;;;;;7.20;99.90;;;;;;5020288;28;19948;-82
2020/12/20 01:04:09;;;;;;;;;;;7.20;99.90;;;;;;5017942;28;20020;-82
2020/12/20 01:09:42;;;;;;;;;;;7.30;99.90;;;;;;5023297;28;19955;-83
2020/12/20 01:12:08;;;;;;;;;;;7.60;99.90;;;;;;5019441;28;19929;-82
2020/12/20 06:13:28;;;;;;;;;;;4.60;99.90;;;;;;5039931;28;19908;-80
2020/12/20 16:04:46;;;;;;;;;;;6.80;99.90;;;;;;5698783;23;20417;-79
2020/12/20 16:07:13;;;;;;;;;;;7.00;99.90;;;;;;5032778;28;19991;-79
2020/12/20 16:09:39;;;;;;;;;;;6.70;99.90;;;;;;5022502;28;19925;-80
2020/12/20 16:12:06;;;;;;;;;;;6.70;99.90;;;;;;5020968;28;19925;-80
2020/12/20 16:14:33;;;;;;;;;;;6.70;99.90;;;;;;5019830;28;19929;-79
2020/12/20 16:17:00;;;;;;;;;;;6.70;99.90;;;;;;5019199;28;20357;-79
2020/12/20 16:19:26;;;;;;;;;;;6.70;99.90;;;;;;5020335;28;20406;-79
2020/12/20 16:21:53;;;;;;;;;;;6.70;99.90;;;;;;5020085;28;19936;-79
2020/12/20 16:24:26;;;;;;;;;;;6.70;99.90;;;;;;5015687;28;20116;-79
2020/12/20 16:26:54;;;;;;;;;;;6.70;99.90;;;;;;5017176;28;20440;-80
2020/12/20 16:29:21;;;;;;;;;;;6.70;99.90;;;;;;5023448;28;19926;-80
2020/12/20 16:31:55;;;;;;;;;;;6.70;99.90;;;;;;5024582;28;20145;-80
2020/12/20 16:34:24;;;;;;;;;;;6.60;99.90;;;;;;5022330;28;19925;-80
2020/12/20 16:36:55;;;;;;;;;;;6.60;99.90;;;;;;5024411;28;19960;-80
2020/12/20 16:39:27;;;;;;;;;;;6.60;99.90;;;;;;5023579;28;19935;-80
2020/12/20 16:41:55;;;;;;;;;;;6.60;99.90;;;;;;5019406;28;19936;-79
2020/12/20 16:44:23;;;;;;;;;;;6.60;99.90;;;;;;5019345;28;19926;-79
2020/12/20 16:46:52;;;;;;;;;;;4.10;99.90;;;;;;5019915;28;19925;-79
2020/12/20 16:49:22;;;;;;;;;;;6.60;99.90;;;;;;5025541;28;19929;-80
2020/12/20 16:51:50;;;;;;;;;;;6.60;99.90;;;;;;5028287;28;19928;-79
2020/12/20 16:54:18;;;;;;;;;;;7.70;99.90;;;;;;5022501;28;19925;-79
2020/12/20 16:56:52;;;;;;;;;;;6.60;99.90;;;;;;5032731;28;19970;-80
2020/12/20 16:59:23;;;;;;;;;;;6.60;99.90;;;;;;5035857;28;19909;-80
2020/12/20 17:01:49;;;;;;;;;;;6.60;99.90;;;;;;5028125;28;19933;-80
2020/12/20 17:04:20;;;;;;;;;;;6.60;99.90;;;;;;5037117;28;19925;-81
2020/12/20 17:06:49;;;;;;;;;;;6.90;99.90;;;;;;5037738;28;19933;-80
2020/12/20 17:09:15;;;;;;;;;;;6.50;99.90;;;;;;5031662;28;19936;-78
2020/12/20 17:11:42;;;;;;;;;;;6.50;99.90;;;;;;5021444;28;19925;-79
2020/12/20 17:14:16;;;;;;;;;;;6.40;99.90;;;;;;5024676;28;19930;-79
2020/12/20 17:16:44;;;;;;;;;;;10.50;99.90;;;;;;5026095;28;19936;-79
2020/12/20 17:19:13;;;;;;;;;;;6.50;99.90;;;;;;5027710;28;19925;-80
2020/12/20 17:21:39;;;;;;;;;;;6.50;99.90;;;;;;5030209;28;19925;-79
2020/12/20 17:24:07;;;;;;;;;;;6.50;99.90;;;;;;5030946;28;19983;-80
2020/12/20 17:26:39;;;;;;;;;;;6.50;99.90;;;;;;5025723;28;19929;-80
2020/12/20 17:29:07;;;;;;;;;;;6.40;99.90;;;;;;5020122;28;19964;-79
2020/12/20 17:31:37;;;;;;;;;;;6.40;99.90;;;;;;5027753;28;20008;-80
2020/12/20 17:34:04;;;;;;;;;;;6.40;99.90;;;;;;5027404;28;19925;-80
2020/12/20 17:36:32;;;;;;;;;;;6.40;99.90;;;;;;5031066;28;20342;-80
2020/12/20 17:38:59;;;;;;;;;;;6.30;99.90;;;;;;5030871;28;19925;-80
2020/12/20 17:41:27;;;;;;;;;;;6.40;99.90;;;;;;5033028;28;20008;-80
2020/12/20 17:43:54;;;;;;;;;;;6.40;99.90;;;;;;5033916;28;19962;-81
2020/12/20 17:46:22;;;;;;;;;;;6.40;99.90;;;;;;5037262;28;19910;-81
2020/12/20 17:48:50;;;;;;;;;;;6.40;99.90;;;;;;5030682;28;19965;-80
2020/12/20 17:51:17;;;;;;;;;;;6.80;99.90;;;;;;5027612;28;19926;-80
2020/12/20 17:53:44;;;;;;;;;;;6.30;99.90;;;;;;5035961;28;19925;-80
2020/12/20 17:56:15;;;;;;;;;;;6.60;99.90;;;;;;5035605;28;20000;-80
2020/12/20 17:58:44;;;;;;;;;;;6.20;99.90;;;;;;5032929;28;19936;-80
2020/12/20 18:01:13;;;;;;;;;;;6.60;99.90;;;;;;5029026;28;19926;-80
2020/12/20 18:03:41;;;;;;;;;;;6.30;99.90;;;;;;5034018;28;20001;-80
2020/12/20 18:06:14;;;;;;;;;;;6.30;99.90;;;;;;5051270;28;19952;-80
2020/12/20 18:08:43;;;;;;;;;;;6.20;99.90;;;;;;5056151;28;19983;-81
2020/12/20 18:11:14;;;;;;;;;;;6.50;99.90;;;;;;5054598;28;19925;-80
2020/12/20 18:13:50;;;;;;;;;;;6.20;99.90;;;;;;5053019;28;19932;-80
2020/12/20 18:16:21;;;;;;;;;;;6.30;99.90;;;;;;5052174;28;19952;-80
2020/12/20 18:18:50;;;;;;;;;;;6.50;99.90;;;;;;5053421;28;19953;-80
2020/12/20 18:21:22;;;;;;;;;;;6.50;99.90;;;;;;5052970;28;19909;-80
2020/12/20 18:23:51;;;;;;;;;;;7.10;99.90;;;;;;5053010;28;19940;-80
2020/12/20 18:26:18;;;;;;;;;;;6.10;99.90;;;;;;5051773;28;19925;-80
2020/12/20 18:28:47;;;;;;;;;;;6.50;99.90;;;;;;5044677;28;19916;-80
2020/12/20 18:31:15;;;;;;;;;;;7.10;99.90;;;;;;5057032;28;19985;-80
2020/12/20 18:33:43;;;;;;;;;;;6.10;99.90;;;;;;5055499;28;19932;-80
2020/12/20 18:36:11;;;;;;;;;;;6.20;99.90;;;;;;5058611;28;19972;-81
2020/12/20 18:38:50;;;;;;;;;;;6.60;99.90;;;;;;5049675;28;19936;-81
2020/12/20 18:41:18;;;;;;;;;;;6.40;99.90;;;;;;5058078;28;19932;-80
2020/12/20 18:55:35;;;;;;;;;;;6.10;99.90;;;;;;5995103;23;19920;-79
2020/12/20 19:01:13;;;;;;;;;;;6.10;99.90;;;;;;5307018;23;19910;-82
2020/12/20 19:03:41;;;;;;;;;;;7.60;99.90;;;;;;5010490;28;19930;-81
2020/12/20 19:06:30;;;;;;;;;;;6.00;99.90;;;;;;4999464;28;19942;-81
2020/12/20 19:11:41;;;;;;;;;;;6.10;99.90;;;;;;5387902;23;19944;-80
2020/12/20 19:14:08;;;;;;;;;;;6.00;99.90;;;;;;4984835;28;19965;-79
2020/12/20 19:16:35;;;;;;;;;;;6.00;99.90;;;;;;4997478;28;19952;-78
2020/12/20 19:24:54;;;;;;;;;;;6.10;99.90;;;;;;4996590;28;19922;-79
2020/12/20 19:27:37;;;;;;;;;;;6.30;99.90;;;;;;4996847;28;19957;-79
2020/12/20 19:30:10;;;;;;;;;;;7.40;99.90;;;;;;4997754;28;19926;-78
2020/12/20 19:35:30;;;;;;;;;;;6.30;99.90;;;;;;4981971;28;19926;-79
2020/12/20 19:37:58;;;;;;;;;;;6.20;99.90;;;;;;5001770;28;20340;-78
2020/12/20 19:40:34;;;;;;;;;;;4.40;99.90;;;;;;5015262;28;19962;-79
2020/12/20 19:43:02;;;;;;;;;;;6.30;99.90;;;;;;5009687;28;19970;-79
2020/12/20 19:45:33;;;;;;;;;;;6.20;99.90;;;;;;5012339;28;19926;-78
2020/12/20 19:48:00;;;;;;;;;;;6.00;99.90;;;;;;5000585;28;19966;-78
2020/12/20 19:50:30;;;;;;;;;;;5.80;99.90;;;;;;5002292;28;19933;-79
2020/12/20 19:53:04;;;;;;;;;;;6.20;99.90;;;;;;5003018;28;19910;-79
2020/12/20 19:55:44;;;;;;;;;;;4.90;99.90;;;;;;5002526;28;19929;-78
2020/12/20 19:58:23;;;;;;;;;;;5.80;99.90;;;;;;5002485;28;19970;-79
2020/12/20 20:00:51;;;;;;;;;;;6.10;99.90;;;;;;4993124;28;19934;-76
2020/12/20 20:03:22;;;;;;;;;;;6.20;99.90;;;;;;4992864;28;19926;-78
2020/12/20 20:05:49;;;;;;;;;;;5.80;99.90;;;;;;4994119;28;20266;-78
2020/12/20 20:08:19;;;;;;;;;;;5.90;99.90;;;;;;4999351;28;19926;-78
2020/12/20 20:10:47;;;;;;;;;;;6.20;99.90;;;;;;4993613;28;19936;-79
2020/12/20 20:13:19;;;;;;;;;;;5.80;99.90;;;;;;5005165;28;19934;-77
2020/12/20 20:15:47;;;;;;;;;;;5.80;99.90;;;;;;5009872;28;20013;-78
2020/12/20 20:18:16;;;;;;;;;;;5.90;99.90;;;;;;5006780;28;20358;-78
2020/12/20 20:20:42;;;;;;;;;;;5.80;99.90;;;;;;5003523;28;19926;-78
2020/12/20 20:25:44;;;;;;;;;;;5.80;99.90;;;;;;5397978;23;19933;-80
2020/12/20 20:28:12;;;;;;;;;;;6.20;99.90;;;;;;5010664;28;19956;-79
2020/12/20 20:34:05;;;;;;;;;;;5.60;99.90;;;;;;4987923;28;20006;-79
2020/12/20 21:34:12;;;;;;;;;;;6.10;99.90;;;;;;5222829;23;19936;-80
2020/12/20 21:37:01;;;;;;;;;;;6.40;99.90;;;;;;5019846;28;19917;-80
2020/12/20 21:42:06;;;;;;;;;;;5.70;99.90;;;;;;5097282;23;19917;-80
2020/12/20 22:27:09;;;;;;;;;;;5.80;99.90;;;;;;5036115;28;19916;-78
